sensor_id;sensor_type;location;lat;lon;timestamp;temperature;humidity
9193;DHT22;4631;49.296;10.560;2023-08-07T00:00:41;11.40;99.90
9193;DHT22;4631;49.296;10.560;2023-08-07T00:03:09;11.40;99.90
9193;DHT22;4631;49.296;10.560;2023-08-07T00:05:36;11.40;99.90
9193;DHT22;4631;49.296;10.560;2023-08-07T00:08:03;11.40;99.90
9193;DHT22;4631;49.296;10.560;2023-08-07T00:10:30;11.40;99.90
9193;DHT22;4631;49.296;10.560;2023-08-07T00:12:56;11.40;99.90
9193;DHT22;4631;49.296;10.560;2023-08-07T00:15:23;11.40;99.90
9193;DHT22;4631;49.296;10.560;2023-08-07T00:17:50;11.40;99.90
9193;DHT22;4631;49.296;10.560;2023-08-07T00:20:18;11.30;99.90
9193;DHT22;4631;49.296;10.560;2023-08-07T00:22:44;11.40;99.90
9193;DHT22;4631;49.296;10.560;2023-08-07T00:25:11;11.30;99.90
9193;DHT22;4631;49.296;10.560;2023-08-07T00:27:37;11.30;99.90
9193;DHT22;4631;49.296;10.560;2023-08-07T00:30:04;11.30;99.90
9193;DHT22;4631;49.296;10.560;2023-08-07T00:32:31;11.30;99.90
9193;DHT22;4631;49.296;10.560;2023-08-07T00:34:58;11.30;99.90
9193;DHT22;4631;49.296;10.560;2023-08-07T00:37:26;11.30;99.90
9193;DHT22;4631;49.296;10.560;2023-08-07T00:39:52;11.30;99.90
9193;DHT22;4631;49.296;10.560;2023-08-07T00:42:19;11.30;99.90
9193;DHT22;4631;49.296;10.560;2023-08-07T00:44:46;11.30;99.90
9193;DHT22;4631;49.296;10.560;2023-08-07T00:47:12;11.30;99.90
9193;DHT22;4631;49.296;10.560;2023-08-07T00:49:39;11.30;99.90
9193;DHT22;4631;49.296;10.560;2023-08-07T00:52:06;11.30;99.90
9193;DHT22;4631;49.296;10.560;2023-08-07T00:54:34;11.20;99.90
9193;DHT22;4631;49.296;10.560;2023-08-07T00:57:03;11.20;99.90
9193;DHT22;4631;49.296;10.560;2023-08-07T00:59:33;11.20;99.90
9193;DHT22;4631;49.296;10.560;2023-08-07T01:02:00;11.30;99.90
9193;DHT22;4631;49.296;10.560;2023-08-07T01:04:27;11.30;99.90
9193;DHT22;4631;49.296;10.560;2023-08-07T01:06:54;11.20;99.90
9193;DHT22;4631;49.296;10.560;2023-08-07T01:09:20;11.20;99.90
9193;DHT22;4631;49.296;10.560;2023-08-07T01:11:49;11.20;99.90
9193;DHT22;4631;49.296;10.560;2023-08-07T01:14:18;11.20;99.90
9193;DHT22;4631;49.296;10.560;2023-08-07T01:16:47;11.20;99.90
9193;DHT22;4631;49.296;10.560;2023-08-07T01:19:19;11.20;99.90
9193;DHT22;4631;49.296;10.560;2023-08-07T01:21:49;11.20;99.90
9193;DHT22;4631;49.296;10.560;2023-08-07T01:24:15;11.10;99.90
9193;DHT22;4631;49.296;10.560;2023-08-07T01:26:42;11.10;99.90
9193;DHT22;4631;49.296;10.560;2023-08-07T01:29:11;11.10;99.90
9193;DHT22;4631;49.296;10.560;2023-08-07T01:31:38;11.10;99.90
9193;DHT22;4631;49.296;10.560;2023-08-07T01:34:06;11.10;99.90
9193;DHT22;4631;49.296;10.560;2023-08-07T01:36:34;11.10;99.90
9193;DHT22;4631;49.296;10.560;2023-08-07T01:39:02;11.10;99.90
9193;DHT22;4631;49.296;10.560;2023-08-07T01:41:32;11.10;99.90
9193;DHT22;4631;49.296;10.560;2023-08-07T01:43:59;11.10;99.90
9193;DHT22;4631;49.296;10.560;2023-08-07T01:46:25;11.10;99.90
9193;DHT22;4631;49.296;10.560;2023-08-07T01:48:52;11.00;99.90
9193;DHT22;4631;49.296;10.560;2023-08-07T01:51:19;11.10;99.90
9193;DHT22;4631;49.296;10.560;2023-08-07T01:53:45;11.10;99.90
9193;DHT22;4631;49.296;10.560;2023-08-07T01:56:14;11.10;99.90
9193;DHT22;4631;49.296;10.560;2023-08-07T01:58:41;11.00;99.90
9193;DHT22;4631;49.296;10.560;2023-08-07T02:01:07;11.00;99.90
9193;DHT22;4631;49.296;10.560;2023-08-07T02:03:34;11.00;99.90
9193;DHT22;4631;49.296;10.560;2023-08-07T02:06:00;11.00;99.90
9193;DHT22;4631;49.296;10.560;2023-08-07T02:08:27;11.00;99.90
9193;DHT22;4631;49.296;10.560;2023-08-07T02:10:54;11.00;99.90
9193;DHT22;4631;49.296;10.560;2023-08-07T02:13:22;11.00;99.90
9193;DHT22;4631;49.296;10.560;2023-08-07T02:15:49;11.00;99.90
9193;DHT22;4631;49.296;10.560;2023-08-07T02:18:17;11.00;99.90
9193;DHT22;4631;49.296;10.560;2023-08-07T02:20:44;11.00;99.90
9193;DHT22;4631;49.296;10.560;2023-08-07T02:23:12;11.00;99.90
9193;DHT22;4631;49.296;10.560;2023-08-07T02:25:38;11.00;99.90
9193;DHT22;4631;49.296;10.560;2023-08-07T02:28:05;11.00;99.90
9193;DHT22;4631;49.296;10.560;2023-08-07T02:30:33;10.90;99.90
9193;DHT22;4631;49.296;10.560;2023-08-07T02:33:00;10.90;99.90
9193;DHT22;4631;49.296;10.560;2023-08-07T02:35:26;11.00;99.90
9193;DHT22;4631;49.296;10.560;2023-08-07T02:37:53;10.90;99.90
9193;DHT22;4631;49.296;10.560;2023-08-07T02:40:20;10.90;99.90
9193;DHT22;4631;49.296;10.560;2023-08-07T02:42:46;10.90;99.90
9193;DHT22;4631;49.296;10.560;2023-08-07T02:45:13;10.90;99.90
9193;DHT22;4631;49.296;10.560;2023-08-07T02:47:41;10.90;99.90
9193;DHT22;4631;49.296;10.560;2023-08-07T02:50:08;10.90;99.90
9193;DHT22;4631;49.296;10.560;2023-08-07T02:52:34;10.90;99.90
9193;DHT22;4631;49.296;10.560;2023-08-07T02:55:01;10.90;99.90
9193;DHT22;4631;49.296;10.560;2023-08-07T02:57:35;10.80;99.90
9193;DHT22;4631;49.296;10.560;2023-08-07T03:00:01;10.90;99.90
9193;DHT22;4631;49.296;10.560;2023-08-07T03:02:28;10.90;99.90
9193;DHT22;4631;49.296;10.560;2023-08-07T03:04:56;10.90;99.90
9193;DHT22;4631;49.296;10.560;2023-08-07T03:07:23;10.90;99.90
9193;DHT22;4631;49.296;10.560;2023-08-07T03:09:49;10.80;99.90
9193;DHT22;4631;49.296;10.560;2023-08-07T03:12:17;10.80;99.90
9193;DHT22;4631;49.296;10.560;2023-08-07T03:14:43;10.90;99.90
9193;DHT22;4631;49.296;10.560;2023-08-07T03:17:10;10.80;99.90
9193;DHT22;4631;49.296;10.560;2023-08-07T03:19:37;10.80;99.90
9193;DHT22;4631;49.296;10.560;2023-08-07T03:22:06;10.80;99.90
9193;DHT22;4631;49.296;10.560;2023-08-07T03:24:34;10.80;99.90
9193;DHT22;4631;49.296;10.560;2023-08-07T03:27:01;10.80;99.90
9193;DHT22;4631;49.296;10.560;2023-08-07T03:29:28;10.80;99.90
9193;DHT22;4631;49.296;10.560;2023-08-07T03:31:54;10.80;99.90
9193;DHT22;4631;49.296;10.560;2023-08-07T03:34:21;10.80;99.90
9193;DHT22;4631;49.296;10.560;2023-08-07T03:36:48;10.80;99.90
9193;DHT22;4631;49.296;10.560;2023-08-07T03:39:16;10.80;99.90
9193;DHT22;4631;49.296;10.560;2023-08-07T03:41:43;10.80;99.90
9193;DHT22;4631;49.296;10.560;2023-08-07T03:44:10;10.80;99.90
9193;DHT22;4631;49.296;10.560;2023-08-07T03:46:36;10.80;99.90
9193;DHT22;4631;49.296;10.560;2023-08-07T03:49:06;10.80;99.90
9193;DHT22;4631;49.296;10.560;2023-08-07T03:51:33;10.70;99.90
9193;DHT22;4631;49.296;10.560;2023-08-07T03:53:59;10.80;99.90
9193;DHT22;4631;49.296;10.560;2023-08-07T03:56:28;10.70;99.90
9193;DHT22;4631;49.296;10.560;2023-08-07T03:58:57;10.70;99.90
9193;DHT22;4631;49.296;10.560;2023-08-07T04:01:24;10.70;99.90
9193;DHT22;4631;49.296;10.560;2023-08-07T04:03:51;10.70;99.90
9193;DHT22;4631;49.296;10.560;2023-08-07T04:06:17;10.70;99.90
9193;DHT22;4631;49.296;10.560;2023-08-07T04:08:44;10.70;99.90
9193;DHT22;4631;49.296;10.560;2023-08-07T04:11:11;10.60;99.90
9193;DHT22;4631;49.296;10.560;2023-08-07T04:13:39;10.60;99.90
9193;DHT22;4631;49.296;10.560;2023-08-07T04:16:05;10.60;99.90
9193;DHT22;4631;49.296;10.560;2023-08-07T04:18:32;10.60;99.90
9193;DHT22;4631;49.296;10.560;2023-08-07T04:20:59;10.60;99.90
9193;DHT22;4631;49.296;10.560;2023-08-07T04:23:26;10.60;99.90
9193;DHT22;4631;49.296;10.560;2023-08-07T04:25:53;10.60;99.90
9193;DHT22;4631;49.296;10.560;2023-08-07T04:28:20;10.60;99.90
9193;DHT22;4631;49.296;10.560;2023-08-07T04:30:50;10.60;99.90
9193;DHT22;4631;49.296;10.560;2023-08-07T04:33:17;10.60;99.90
9193;DHT22;4631;49.296;10.560;2023-08-07T04:35:43;10.60;99.90
9193;DHT22;4631;49.296;10.560;2023-08-07T04:38:11;10.60;99.90
9193;DHT22;4631;49.296;10.560;2023-08-07T04:40:42;10.60;99.90
9193;DHT22;4631;49.296;10.560;2023-08-07T04:43:09;10.60;99.90
9193;DHT22;4631;49.296;10.560;2023-08-07T04:45:36;10.60;99.90
9193;DHT22;4631;49.296;10.560;2023-08-07T04:48:05;10.60;99.90
9193;DHT22;4631;49.296;10.560;2023-08-07T04:50:31;10.60;99.90
9193;DHT22;4631;49.296;10.560;2023-08-07T04:52:58;10.60;99.90
9193;DHT22;4631;49.296;10.560;2023-08-07T04:55:25;10.60;99.90
9193;DHT22;4631;49.296;10.560;2023-08-07T04:57:51;10.60;99.90
9193;DHT22;4631;49.296;10.560;2023-08-07T05:00:19;10.60;99.90
9193;DHT22;4631;49.296;10.560;2023-08-07T05:02:46;10.60;99.90
9193;DHT22;4631;49.296;10.560;2023-08-07T05:05:14;10.60;99.90
9193;DHT22;4631;49.296;10.560;2023-08-07T05:07:41;10.60;99.90
9193;DHT22;4631;49.296;10.560;2023-08-07T05:10:08;10.60;99.90
9193;DHT22;4631;49.296;10.560;2023-08-07T05:12:35;10.60;99.90
9193;DHT22;4631;49.296;10.560;2023-08-07T05:15:01;10.60;99.90
9193;DHT22;4631;49.296;10.560;2023-08-07T05:17:28;10.50;99.90
9193;DHT22;4631;49.296;10.560;2023-08-07T05:19:55;10.50;99.90
9193;DHT22;4631;49.296;10.560;2023-08-07T05:22:22;10.50;99.90
9193;DHT22;4631;49.296;10.560;2023-08-07T05:24:49;10.50;99.90
9193;DHT22;4631;49.296;10.560;2023-08-07T05:27:16;10.60;99.90
9193;DHT22;4631;49.296;10.560;2023-08-07T05:29:42;10.60;99.90
9193;DHT22;4631;49.296;10.560;2023-08-07T05:32:12;10.60;99.90
9193;DHT22;4631;49.296;10.560;2023-08-07T05:34:40;10.60;99.90
9193;DHT22;4631;49.296;10.560;2023-08-07T05:37:07;10.50;99.90
9193;DHT22;4631;49.296;10.560;2023-08-07T05:39:35;10.50;99.90
9193;DHT22;4631;49.296;10.560;2023-08-07T05:42:02;10.50;99.90
9193;DHT22;4631;49.296;10.560;2023-08-07T05:44:32;10.50;99.90
9193;DHT22;4631;49.296;10.560;2023-08-07T05:47:02;10.50;99.90
9193;DHT22;4631;49.296;10.560;2023-08-07T05:49:29;10.50;99.90
9193;DHT22;4631;49.296;10.560;2023-08-07T05:51:56;10.50;99.90
9193;DHT22;4631;49.296;10.560;2023-08-07T05:54:23;10.50;99.90
9193;DHT22;4631;49.296;10.560;2023-08-07T05:56:51;10.50;99.90
9193;DHT22;4631;49.296;10.560;2023-08-07T05:59:18;10.50;99.90
9193;DHT22;4631;49.296;10.560;2023-08-07T06:01:44;10.50;99.90
9193;DHT22;4631;49.296;10.560;2023-08-07T06:04:11;10.50;99.90
9193;DHT22;4631;49.296;10.560;2023-08-07T06:06:38;10.50;99.90
9193;DHT22;4631;49.296;10.560;2023-08-07T06:09:05;10.50;99.90
9193;DHT22;4631;49.296;10.560;2023-08-07T06:11:31;10.50;99.90
9193;DHT22;4631;49.296;10.560;2023-08-07T06:13:59;10.50;99.90
9193;DHT22;4631;49.296;10.560;2023-08-07T06:16:26;10.50;99.90
9193;DHT22;4631;49.296;10.560;2023-08-07T06:18:53;10.60;99.90
9193;DHT22;4631;49.296;10.560;2023-08-07T06:21:19;10.60;99.90
9193;DHT22;4631;49.296;10.560;2023-08-07T06:23:46;10.60;99.90
9193;DHT22;4631;49.296;10.560;2023-08-07T06:26:13;10.60;99.90
9193;DHT22;4631;49.296;10.560;2023-08-07T06:28:39;10.60;99.90
9193;DHT22;4631;49.296;10.560;2023-08-07T06:31:08;10.60;99.90
9193;DHT22;4631;49.296;10.560;2023-08-07T06:33:35;10.60;99.90
9193;DHT22;4631;49.296;10.560;2023-08-07T06:36:01;10.70;99.90
9193;DHT22;4631;49.296;10.560;2023-08-07T06:38:28;10.70;99.90
9193;DHT22;4631;49.296;10.560;2023-08-07T06:40:55;10.70;99.90
9193;DHT22;4631;49.296;10.560;2023-08-07T06:43:22;10.80;99.90
9193;DHT22;4631;49.296;10.560;2023-08-07T06:45:49;10.80;99.90
9193;DHT22;4631;49.296;10.560;2023-08-07T06:48:17;10.70;99.90
9193;DHT22;4631;49.296;10.560;2023-08-07T06:50:43;10.70;99.90
9193;DHT22;4631;49.296;10.560;2023-08-07T06:53:10;10.80;99.90
9193;DHT22;4631;49.296;10.560;2023-08-07T06:55:44;10.80;99.90
9193;DHT22;4631;49.296;10.560;2023-08-07T06:58:11;10.70;99.90
9193;DHT22;4631;49.296;10.560;2023-08-07T07:00:37;10.70;99.90
9193;DHT22;4631;49.296;10.560;2023-08-07T07:03:04;10.70;99.90
9193;DHT22;4631;49.296;10.560;2023-08-07T07:05:32;10.80;99.90
9193;DHT22;4631;49.296;10.560;2023-08-07T07:07:59;10.80;99.90
9193;DHT22;4631;49.296;10.560;2023-08-07T07:10:26;10.80;99.90
9193;DHT22;4631;49.296;10.560;2023-08-07T07:12:52;10.80;99.90
9193;DHT22;4631;49.296;10.560;2023-08-07T07:15:19;10.90;99.90
9193;DHT22;4631;49.296;10.560;2023-08-07T07:17:45;10.90;99.90
9193;DHT22;4631;49.296;10.560;2023-08-07T07:20:12;10.90;99.90
9193;DHT22;4631;49.296;10.560;2023-08-07T07:22:40;10.90;99.90
9193;DHT22;4631;49.296;10.560;2023-08-07T07:25:07;10.90;99.90
9193;DHT22;4631;49.296;10.560;2023-08-07T07:27:34;10.90;99.90
9193;DHT22;4631;49.296;10.560;2023-08-07T07:30:01;10.90;99.90
9193;DHT22;4631;49.296;10.560;2023-08-07T07:32:27;10.90;99.90
9193;DHT22;4631;49.296;10.560;2023-08-07T07:34:54;10.90;99.90
9193;DHT22;4631;49.296;10.560;2023-08-07T07:37:21;10.90;99.90
9193;DHT22;4631;49.296;10.560;2023-08-07T07:39:49;10.90;99.90
9193;DHT22;4631;49.296;10.560;2023-08-07T07:42:16;10.90;99.90
9193;DHT22;4631;49.296;10.560;2023-08-07T07:44:43;11.00;99.90
9193;DHT22;4631;49.296;10.560;2023-08-07T07:47:09;11.00;99.90
9193;DHT22;4631;49.296;10.560;2023-08-07T07:49:37;11.00;99.90
9193;DHT22;4631;49.296;10.560;2023-08-07T07:52:04;11.00;99.90
9193;DHT22;4631;49.296;10.560;2023-08-07T07:54:31;11.00;99.90
9193;DHT22;4631;49.296;10.560;2023-08-07T07:57:13;11.00;99.90
9193;DHT22;4631;49.296;10.560;2023-08-07T07:59:40;11.00;99.90
9193;DHT22;4631;49.296;10.560;2023-08-07T08:02:07;11.10;99.90
9193;DHT22;4631;49.296;10.560;2023-08-07T08:04:33;11.00;99.90
9193;DHT22;4631;49.296;10.560;2023-08-07T08:07:01;11.00;99.90
9193;DHT22;4631;49.296;10.560;2023-08-07T08:09:29;11.10;99.90
9193;DHT22;4631;49.296;10.560;2023-08-07T08:11:55;11.10;99.90
9193;DHT22;4631;49.296;10.560;2023-08-07T08:14:23;11.10;99.90
9193;DHT22;4631;49.296;10.560;2023-08-07T08:16:50;11.10;99.90
9193;DHT22;4631;49.296;10.560;2023-08-07T08:19:16;11.10;99.90
9193;DHT22;4631;49.296;10.560;2023-08-07T08:21:43;11.20;99.90
9193;DHT22;4631;49.296;10.560;2023-08-07T08:24:10;11.10;99.90
9193;DHT22;4631;49.296;10.560;2023-08-07T08:26:36;11.20;99.90
9193;DHT22;4631;49.296;10.560;2023-08-07T08:29:03;11.20;99.90
9193;DHT22;4631;49.296;10.560;2023-08-07T08:31:31;11.20;99.90
9193;DHT22;4631;49.296;10.560;2023-08-07T08:33:58;11.30;99.90
9193;DHT22;4631;49.296;10.560;2023-08-07T08:36:26;11.30;99.90
9193;DHT22;4631;49.296;10.560;2023-08-07T08:38:53;11.20;99.90
9193;DHT22;4631;49.296;10.560;2023-08-07T08:41:19;11.30;99.90
9193;DHT22;4631;49.296;10.560;2023-08-07T08:43:47;11.20;99.90
9193;DHT22;4631;49.296;10.560;2023-08-07T08:46:15;11.30;99.90
9193;DHT22;4631;49.296;10.560;2023-08-07T08:48:44;11.30;99.90
9193;DHT22;4631;49.296;10.560;2023-08-07T08:51:13;11.30;99.90
9193;DHT22;4631;49.296;10.560;2023-08-07T08:53:40;11.30;99.90
9193;DHT22;4631;49.296;10.560;2023-08-07T08:56:13;11.40;99.90
9193;DHT22;4631;49.296;10.560;2023-08-07T08:58:39;11.40;99.90
9193;DHT22;4631;49.296;10.560;2023-08-07T09:01:06;11.40;99.90
9193;DHT22;4631;49.296;10.560;2023-08-07T09:03:33;11.40;99.90
9193;DHT22;4631;49.296;10.560;2023-08-07T09:06:02;11.40;99.90
9193;DHT22;4631;49.296;10.560;2023-08-07T09:08:30;11.40;99.90
9193;DHT22;4631;49.296;10.560;2023-08-07T09:10:58;11.40;99.90
9193;DHT22;4631;49.296;10.560;2023-08-07T09:13:24;11.50;99.90
9193;DHT22;4631;49.296;10.560;2023-08-07T09:15:53;11.40;99.90
9193;DHT22;4631;49.296;10.560;2023-08-07T09:18:19;11.40;99.90
9193;DHT22;4631;49.296;10.560;2023-08-07T09:20:46;11.40;99.90
9193;DHT22;4631;49.296;10.560;2023-08-07T09:23:15;11.40;99.90
9193;DHT22;4631;49.296;10.560;2023-08-07T09:25:43;11.40;99.90
9193;DHT22;4631;49.296;10.560;2023-08-07T09:28:09;11.50;99.90
9193;DHT22;4631;49.296;10.560;2023-08-07T09:30:36;11.50;99.90
9193;DHT22;4631;49.296;10.560;2023-08-07T09:33:03;11.50;99.90
9193;DHT22;4631;49.296;10.560;2023-08-07T09:35:31;11.50;99.90
9193;DHT22;4631;49.296;10.560;2023-08-07T09:37:58;11.50;99.90
9193;DHT22;4631;49.296;10.560;2023-08-07T09:40:26;11.50;99.90
9193;DHT22;4631;49.296;10.560;2023-08-07T09:42:53;11.50;99.90
9193;DHT22;4631;49.296;10.560;2023-08-07T09:45:21;11.50;99.90
9193;DHT22;4631;49.296;10.560;2023-08-07T09:47:56;11.50;99.90
9193;DHT22;4631;49.296;10.560;2023-08-07T09:50:22;11.50;99.90
9193;DHT22;4631;49.296;10.560;2023-08-07T09:52:49;11.50;99.90
9193;DHT22;4631;49.296;10.560;2023-08-07T09:55:16;11.50;99.90
9193;DHT22;4631;49.296;10.560;2023-08-07T09:57:52;11.50;99.90
9193;DHT22;4631;49.296;10.560;2023-08-07T10:00:19;11.60;99.90
9193;DHT22;4631;49.296;10.560;2023-08-07T10:02:46;11.60;99.90
9193;DHT22;4631;49.296;10.560;2023-08-07T10:05:14;11.60;99.90
9193;DHT22;4631;49.296;10.560;2023-08-07T10:07:41;11.60;99.90
9193;DHT22;4631;49.296;10.560;2023-08-07T10:10:08;11.60;99.90
9193;DHT22;4631;49.296;10.560;2023-08-07T10:12:35;11.60;99.90
9193;DHT22;4631;49.296;10.560;2023-08-07T10:15:03;11.60;99.90
9193;DHT22;4631;49.296;10.560;2023-08-07T10:17:30;11.60;99.90
9193;DHT22;4631;49.296;10.560;2023-08-07T10:19:58;11.60;99.90
9193;DHT22;4631;49.296;10.560;2023-08-07T10:22:24;11.60;99.90
9193;DHT22;4631;49.296;10.560;2023-08-07T10:24:52;11.70;99.90
9193;DHT22;4631;49.296;10.560;2023-08-07T10:27:20;11.70;99.90
9193;DHT22;4631;49.296;10.560;2023-08-07T10:29:48;11.70;99.90
9193;DHT22;4631;49.296;10.560;2023-08-07T10:32:18;11.70;99.90
9193;DHT22;4631;49.296;10.560;2023-08-07T10:34:46;11.80;99.90
9193;DHT22;4631;49.296;10.560;2023-08-07T10:37:21;11.80;99.90
9193;DHT22;4631;49.296;10.560;2023-08-07T10:40:01;11.80;99.90
9193;DHT22;4631;49.296;10.560;2023-08-07T10:42:27;11.80;99.90
9193;DHT22;4631;49.296;10.560;2023-08-07T10:44:54;11.80;99.90
9193;DHT22;4631;49.296;10.560;2023-08-07T10:47:33;11.80;99.90
9193;DHT22;4631;49.296;10.560;2023-08-07T10:50:00;11.90;99.90
9193;DHT22;4631;49.296;10.560;2023-08-07T10:52:26;11.90;99.90
9193;DHT22;4631;49.296;10.560;2023-08-07T10:54:54;11.90;99.90
9193;DHT22;4631;49.296;10.560;2023-08-07T10:57:20;11.90;99.90
9193;DHT22;4631;49.296;10.560;2023-08-07T10:59:55;11.90;99.90
9193;DHT22;4631;49.296;10.560;2023-08-07T11:02:30;12.00;99.90
9193;DHT22;4631;49.296;10.560;2023-08-07T11:04:59;12.10;99.90
9193;DHT22;4631;49.296;10.560;2023-08-07T11:07:27;12.20;99.90
9193;DHT22;4631;49.296;10.560;2023-08-07T11:09:53;12.20;99.90
9193;DHT22;4631;49.296;10.560;2023-08-07T11:12:20;12.20;99.90
9193;DHT22;4631;49.296;10.560;2023-08-07T11:14:47;12.30;99.90
9193;DHT22;4631;49.296;10.560;2023-08-07T11:17:13;12.30;99.90
9193;DHT22;4631;49.296;10.560;2023-08-07T11:19:40;12.40;99.90
9193;DHT22;4631;49.296;10.560;2023-08-07T11:22:08;12.40;99.90
9193;DHT22;4631;49.296;10.560;2023-08-07T11:24:35;12.40;99.90
9193;DHT22;4631;49.296;10.560;2023-08-07T11:27:02;12.40;99.90
9193;DHT22;4631;49.296;10.560;2023-08-07T11:29:28;12.30;99.90
9193;DHT22;4631;49.296;10.560;2023-08-07T11:31:56;12.30;99.90
9193;DHT22;4631;49.296;10.560;2023-08-07T11:34:22;12.40;99.90
9193;DHT22;4631;49.296;10.560;2023-08-07T11:36:50;12.30;99.90
9193;DHT22;4631;49.296;10.560;2023-08-07T11:39:18;12.30;99.90
9193;DHT22;4631;49.296;10.560;2023-08-07T11:41:45;12.30;99.90
9193;DHT22;4631;49.296;10.560;2023-08-07T11:44:12;12.20;99.90
9193;DHT22;4631;49.296;10.560;2023-08-07T11:46:38;12.20;99.90
9193;DHT22;4631;49.296;10.560;2023-08-07T11:49:05;12.20;99.90
9193;DHT22;4631;49.296;10.560;2023-08-07T11:51:32;12.20;99.90
9193;DHT22;4631;49.296;10.560;2023-08-07T11:53:59;12.20;99.90
9193;DHT22;4631;49.296;10.560;2023-08-07T11:56:34;12.20;99.90
9193;DHT22;4631;49.296;10.560;2023-08-07T11:59:01;12.20;99.90
9193;DHT22;4631;49.296;10.560;2023-08-07T12:01:28;12.30;99.90
9193;DHT22;4631;49.296;10.560;2023-08-07T12:03:55;12.30;99.90
9193;DHT22;4631;49.296;10.560;2023-08-07T12:06:23;12.40;99.90
9193;DHT22;4631;49.296;10.560;2023-08-07T12:08:50;12.40;99.90
9193;DHT22;4631;49.296;10.560;2023-08-07T12:11:17;12.50;99.90
9193;DHT22;4631;49.296;10.560;2023-08-07T12:13:45;12.50;99.90
9193;DHT22;4631;49.296;10.560;2023-08-07T12:16:13;12.70;99.90
9193;DHT22;4631;49.296;10.560;2023-08-07T12:18:43;12.70;99.90
9193;DHT22;4631;49.296;10.560;2023-08-07T12:21:10;12.70;99.90
9193;DHT22;4631;49.296;10.560;2023-08-07T12:23:36;12.80;99.90
9193;DHT22;4631;49.296;10.560;2023-08-07T12:26:03;12.80;99.90
9193;DHT22;4631;49.296;10.560;2023-08-07T12:28:33;12.90;99.90
9193;DHT22;4631;49.296;10.560;2023-08-07T12:31:02;12.90;99.90
9193;DHT22;4631;49.296;10.560;2023-08-07T12:33:29;12.90;99.90
9193;DHT22;4631;49.296;10.560;2023-08-07T12:35:56;12.80;99.90
9193;DHT22;4631;49.296;10.560;2023-08-07T12:38:22;12.90;99.90
9193;DHT22;4631;49.296;10.560;2023-08-07T12:40:49;12.90;99.90
9193;DHT22;4631;49.296;10.560;2023-08-07T12:43:16;12.80;99.90
9193;DHT22;4631;49.296;10.560;2023-08-07T12:45:42;12.80;99.90
9193;DHT22;4631;49.296;10.560;2023-08-07T12:48:11;12.80;99.90
9193;DHT22;4631;49.296;10.560;2023-08-07T12:50:38;12.70;99.90
9193;DHT22;4631;49.296;10.560;2023-08-07T12:53:05;12.60;99.90
9193;DHT22;4631;49.296;10.560;2023-08-07T12:58:03;12.50;99.90
9193;DHT22;4631;49.296;10.560;2023-08-07T13:00:30;12.50;99.90
9193;DHT22;4631;49.296;10.560;2023-08-07T13:02:57;12.40;99.90
9193;DHT22;4631;49.296;10.560;2023-08-07T13:05:25;12.30;99.90
9193;DHT22;4631;49.296;10.560;2023-08-07T13:07:52;12.30;99.90
9193;DHT22;4631;49.296;10.560;2023-08-07T13:10:21;12.30;99.90
9193;DHT22;4631;49.296;10.560;2023-08-07T13:12:48;12.30;99.90
9193;DHT22;4631;49.296;10.560;2023-08-07T13:15:15;12.30;99.90
9193;DHT22;4631;49.296;10.560;2023-08-07T13:17:43;12.30;99.90
9193;DHT22;4631;49.296;10.560;2023-08-07T13:20:10;12.30;99.90
9193;DHT22;4631;49.296;10.560;2023-08-07T13:22:39;12.20;99.90
9193;DHT22;4631;49.296;10.560;2023-08-07T13:25:07;12.20;99.90
9193;DHT22;4631;49.296;10.560;2023-08-07T13:27:33;12.20;99.90
9193;DHT22;4631;49.296;10.560;2023-08-07T13:30:01;12.10;99.90
9193;DHT22;4631;49.296;10.560;2023-08-07T13:32:28;12.20;99.90
9193;DHT22;4631;49.296;10.560;2023-08-07T13:34:55;12.10;99.90
9193;DHT22;4631;49.296;10.560;2023-08-07T13:37:22;12.10;99.90
9193;DHT22;4631;49.296;10.560;2023-08-07T13:39:50;12.10;99.90
9193;DHT22;4631;49.296;10.560;2023-08-07T13:42:18;12.00;99.90
9193;DHT22;4631;49.296;10.560;2023-08-07T13:44:44;12.10;99.90
9193;DHT22;4631;49.296;10.560;2023-08-07T13:47:11;12.10;99.90
9193;DHT22;4631;49.296;10.560;2023-08-07T13:49:38;12.10;99.90
9193;DHT22;4631;49.296;10.560;2023-08-07T13:52:05;12.10;99.90
9193;DHT22;4631;49.296;10.560;2023-08-07T13:54:32;12.20;99.90
9193;DHT22;4631;49.296;10.560;2023-08-07T13:57:08;12.20;99.90
9193;DHT22;4631;49.296;10.560;2023-08-07T13:59:35;12.20;99.90
9193;DHT22;4631;49.296;10.560;2023-08-07T14:02:02;12.20;99.90
9193;DHT22;4631;49.296;10.560;2023-08-07T14:04:29;12.20;99.90
9193;DHT22;4631;49.296;10.560;2023-08-07T14:06:55;12.30;99.90
9193;DHT22;4631;49.296;10.560;2023-08-07T14:09:22;12.30;99.90
9193;DHT22;4631;49.296;10.560;2023-08-07T14:11:48;12.30;99.90
9193;DHT22;4631;49.296;10.560;2023-08-07T14:14:17;12.40;99.90
9193;DHT22;4631;49.296;10.560;2023-08-07T14:16:43;12.40;99.90
9193;DHT22;4631;49.296;10.560;2023-08-07T14:19:10;12.30;99.90
9193;DHT22;4631;49.296;10.560;2023-08-07T14:21:36;12.20;99.90
9193;DHT22;4631;49.296;10.560;2023-08-07T14:24:04;12.20;99.90
9193;DHT22;4631;49.296;10.560;2023-08-07T14:26:31;12.20;99.90
9193;DHT22;4631;49.296;10.560;2023-08-07T14:28:58;12.20;99.90
9193;DHT22;4631;49.296;10.560;2023-08-07T14:31:26;12.20;99.90
9193;DHT22;4631;49.296;10.560;2023-08-07T14:33:52;12.20;99.90
9193;DHT22;4631;49.296;10.560;2023-08-07T14:36:19;12.20;99.90
9193;DHT22;4631;49.296;10.560;2023-08-07T14:38:45;12.20;99.90
9193;DHT22;4631;49.296;10.560;2023-08-07T14:41:12;12.30;99.90
9193;DHT22;4631;49.296;10.560;2023-08-07T14:43:39;12.30;99.90
9193;DHT22;4631;49.296;10.560;2023-08-07T14:46:15;12.40;99.90
9193;DHT22;4631;49.296;10.560;2023-08-07T14:48:43;12.50;99.90
9193;DHT22;4631;49.296;10.560;2023-08-07T14:51:10;12.60;99.90
9193;DHT22;4631;49.296;10.560;2023-08-07T14:53:37;12.60;99.90
9193;DHT22;4631;49.296;10.560;2023-08-07T14:58:37;12.70;99.90
9193;DHT22;4631;49.296;10.560;2023-08-07T15:01:03;12.80;99.90
9193;DHT22;4631;49.296;10.560;2023-08-07T15:03:30;12.80;99.90
9193;DHT22;4631;49.296;10.560;2023-08-07T15:05:58;12.80;99.90
9193;DHT22;4631;49.296;10.560;2023-08-07T15:08:25;12.90;99.90
9193;DHT22;4631;49.296;10.560;2023-08-07T15:10:51;12.90;99.90
9193;DHT22;4631;49.296;10.560;2023-08-07T15:13:18;12.90;99.90
9193;DHT22;4631;49.296;10.560;2023-08-07T15:15:45;13.00;99.90
9193;DHT22;4631;49.296;10.560;2023-08-07T15:18:12;13.10;99.90
9193;DHT22;4631;49.296;10.560;2023-08-07T15:20:38;13.20;99.90
9193;DHT22;4631;49.296;10.560;2023-08-07T15:23:07;13.20;99.90
9193;DHT22;4631;49.296;10.560;2023-08-07T15:25:33;13.30;99.90
9193;DHT22;4631;49.296;10.560;2023-08-07T15:28:00;13.40;99.90
9193;DHT22;4631;49.296;10.560;2023-08-07T15:30:28;13.40;99.90
9193;DHT22;4631;49.296;10.560;2023-08-07T15:32:55;13.40;99.90
9193;DHT22;4631;49.296;10.560;2023-08-07T15:35:22;13.50;99.90
9193;DHT22;4631;49.296;10.560;2023-08-07T15:37:49;13.60;99.90
9193;DHT22;4631;49.296;10.560;2023-08-07T15:40:17;13.80;99.90
9193;DHT22;4631;49.296;10.560;2023-08-07T15:42:44;13.90;99.90
9193;DHT22;4631;49.296;10.560;2023-08-07T15:45:12;13.90;99.90
9193;DHT22;4631;49.296;10.560;2023-08-07T15:47:39;14.00;99.90
9193;DHT22;4631;49.296;10.560;2023-08-07T15:50:06;14.10;99.90